• Join FlightAware (Why Join?)
  • Login
  • US Flag 
08:02AM EDT


 

Airport Tracker/Info


-or-


 

Live Flight TrackerFlight Track Log ✈ AWE3827 ✈ 20-Apr-2013 ✈ KCLT - KBNA

Flight Track Log - Related Links

Times and Time Zones

All times are in EDT time to prevent confusion due to time zone crossing. See the AWE3827 flight status page for this flight to view local times or setup timezone preferences in your user account.

Time Position Orientation Groundspeed Altitude Reporting Facility
EDT Latitude Longitude Course Direction KTS MPH feet Rate Location/Type
08:25AM 35.2322 -80.9539 239° Southwest 158 182 1,600  Level FAA TRACON SMA TRACON (SMA)
08:25AM 35.2450 -80.9583 344° North 162 186 2,300 2,100 Climbing FAA TRACON SMA TRACON (SMA)
08:26AM 35.2614 -80.9719 326° Northwest 195 224 3,000 2,100 Climbing FAA TRACON SMA TRACON (SMA)
08:26AM 35.2747 -80.9864 319° Northwest 212 244 3,700 2,100 Climbing FAA TRACON SMA TRACON (SMA)
08:26AM 35.2911 -81.0094 311° West 252 290 4,400 2,700 Climbing FAA TRACON SMA TRACON (SMA)
08:27AM 35.2565 -81.1553 282° West  Level FlightAware Approximate
08:27AM 35.2928 -81.0347 275° West 244 281 5,500  Level FAA TRACON SMA TRACON (SMA)
08:27AM 35.2897 -81.0603 262° West 245 282 6,600 3,120 Climbing FAA TRACON SMA TRACON (SMA)
08:27AM 35.2806 -81.0906 250° West 250 288 7,600 2,700 Climbing FAA TRACON SMA TRACON (SMA)
08:28AM 35.2459 -81.2651 242° Southwest  Level FlightAware Approximate
08:28AM 35.2725 -81.1150 248° West 252 290 8,400  Level FAA TRACON SMA TRACON (SMA)
08:28AM 35.2650 -81.1392 249° West 247 284 9,400 2,820 Climbing FAA TRACON SMA TRACON (SMA)
08:28AM 35.2556 -81.1689 249° West 247 284 10,300 1,980 Climbing FAA TRACON SMA TRACON (SMA)
08:28AM 35.2478 -81.1933 249° West 251 289 10,700 900 Climbing FAA TRACON SMA TRACON (SMA)
08:29AM 35.1995 -81.3677 239° Southwest  Level FlightAware Approximate
08:29AM 35.2394 -81.2175 247° West 274 315 10,900  Level FAA TRACON SMA TRACON (SMA)
08:29AM 35.2300 -81.2483 249° West 284 327 11,400 1,620 Climbing FAA TRACON SMA TRACON (SMA)
08:29AM 35.2183 -81.2842 248° West 296 341 12,000 1,800 Climbing FAA TRACON SMA TRACON (SMA)
08:30AM 35.1496 -81.4676 239° Southwest  Level FlightAware Approximate
08:30AM 35.2086 -81.3136 248° West 298 343 12,600  Level FAA TRACON SMA TRACON (SMA)
08:30AM 35.1967 -81.3500 248° West 300 345 13,200 1,500 Climbing FAA TRACON SMA TRACON (SMA)
08:30AM 35.1875 -81.3772 248° West 302 348 13,600 1,680 Climbing FAA TRACON SMA TRACON (SMA)
08:31AM 35.1789 -81.4139 254° West 306 352 14,300 1,440 Climbing Atlanta Center
08:32AM 35.1497 -81.5036 248° West 316 364 15,500 1,320 Climbing Atlanta Center
08:33AM 35.1392 -81.6106 263° West 322 371 17,000 1,320 Climbing Atlanta Center
08:34AM 35.1331 -81.7225 266° West 328 377 18,200 1,260 Climbing Atlanta Center
08:35AM 35.1228 -81.8397 264° West 335 386 19,600 3,900 Climbing Atlanta Center
08:36AM 35.1164 -81.9492 266° West 335 386 26,000 1,620 Climbing Atlanta Center
08:37AM 35.1058 -82.0661 264° West 330 380 22,900 -960 Descending Atlanta Center
08:38AM 35.0989 -82.1703 265° West 325 374 24,100 900 Climbing Atlanta Center
08:39AM 35.0878 -82.2619 262° West 313 360 24,700 600 Climbing Atlanta Center
08:40AM 35.1311 -82.3728 296° West 313 360 25,300 600 Climbing Atlanta Center
08:41AM 35.1994 -82.4858 307° West 375 432 26,000 300 Climbing Atlanta Center
08:42AM 35.2486 -82.5842 301° West 380 437 26,000  Level Atlanta Center
08:43AM 35.3019 -82.6925 301° West 375 432 26,000  Level Atlanta Center
08:44AM 35.3572 -82.7986 303° West 380 437 26,000  Level Atlanta Center
08:45AM 35.4106 -82.9072 301° West 380 437 26,000  Level Atlanta Center
08:46AM 35.4636 -83.0111 302° West 374 430 26,000  Level Atlanta Center
08:47AM 35.5186 -83.1228 301° West 374 430 26,000  Level Atlanta Center
08:48AM 35.5675 -83.2192 302° West 381 438 26,000  Level Atlanta Center
08:49AM 35.6286 -83.3414 302° West 386 444 26,000  Level Atlanta Center
08:50AM 35.6856 -83.4533 302° West 386 444 26,000  Level Atlanta Center
08:51AM 35.7425 -83.5653 302° West 386 444 26,000  Level Atlanta Center
08:52AM 35.7969 -83.6778 301° West 381 438 26,000  Level Atlanta Center
08:53AM 35.8514 -83.7878 301° West 381 438 26,000 -180 Level Atlanta Center
08:54AM 35.9039 -83.9056 299° West 381 438 25,700 -660 Descending Atlanta Center
08:55AM 35.8872 -84.0286 261° West 355 409 24,700 -1,020 Descending Atlanta Center
08:56AM 35.8642 -84.1514 257° West 351 404 23,700 -960 Descending Atlanta Center
08:57AM 35.8433 -84.2692 258° West 351 404 22,800 -900 Descending Atlanta Center
08:58AM 35.8242 -84.3844 258° West 351 404 22,000 -900 Descending Atlanta Center
08:59AM 35.8031 -84.5022 258° West 351 404 21,100 -720 Descending Atlanta Center
09:01AM 35.7694 -84.7106 259° West 347 399 20,000 -420 Descending Memphis Center
09:02AM 35.7472 -84.8219 256° West 342 394 20,000  Level Memphis Center
09:03AM 35.7314 -84.9356 260° West 336 387 20,000  Level Memphis Center
09:04AM 35.7056 -85.0625 256° West 341 392 20,000  Level Memphis Center
09:05AM 35.6858 -85.1839 259° West 346 398 20,000  Level Memphis Center
09:06AM 35.6656 -85.3028 258° West 357 411 20,000  Level Memphis Center
09:07AM 35.6433 -85.4217 257° West 362 417 20,000 -540 Level Memphis Center
09:08AM 35.6208 -85.5406 257° West 357 411 19,000 -1,140 Descending Memphis Center
09:09AM 35.5983 -85.6567 257° West 357 411 17,800 -1,380 Descending Memphis Center
09:10AM 35.5775 -85.7700 257° West 357 411 16,300 -1,500 Descending Memphis Center
09:11AM 35.5583 -85.8758 257° West 350 403 14,800 -1,500 Descending Memphis Center
09:12AM 35.5950 -85.9683 296° West 294 338 13,300 -1,500 Descending Memphis Center
09:13AM 35.6539 -86.0444 314° West 307 353 11,900 -1,500 Descending Memphis Center
09:14AM 35.7153 -86.1281 312° West 327 376 10,400 -1,080 Descending Memphis Center
09:15AM 35.7697 -86.1994 313° West 308 354 9,800 -1,080 Descending Memphis Center
09:16AM 35.8136 -86.2586 312° West 261 300 8,300 -1,560 Descending Memphis Center
09:17AM 35.8658 -86.3278 313° West 249 287 6,700 -1,200 Descending Memphis Center
09:18AM 35.9117 -86.3897 312° West 249 287 6,000 -360 Descending Memphis Center
09:19AM 35.9614 -86.4514 315° West 249 287 6,000 -480 Level Memphis Center
09:20AM 36.0050 -86.5108 312° West 249 287 5,100 -540 Descending Memphis Center
09:21AM 36.0464 -86.5653 313° West 231 266 5,000 -180 Descending Memphis Center
09:22AM 36.1006 -86.5653 360° North 196 226 4,800 -240 Descending Memphis Center